Time;durP1;ratioP1;P1;durP2;ratioP2;P2;SDS_P1;SDS_P2;PMS_P1;PMS_P2;Temp;Humidity;BMP_temperature;BMP_pressure;BME280_temperature;BME280_humidity;BME280_pressure;Samples;Min_cycle;Max_cycle;Signal;HPM_P1;HPM_P2
2020/12/24 00:00:18;;;;;;;26.80;18.63;;;;;;;8.57;100.00;98888.80;1754049;81;25204;-78
2020/12/24 00:02:46;;;;;;;28.80;20.07;;;;;;;8.58;100.00;98887.00;1745031;81;25739;-81
2020/12/24 00:05:15;;;;;;;27.93;20.33;;;;;;;8.65;100.00;98893.43;1729274;81;25339;-79
2020/12/24 00:07:42;;;;;;;28.27;20.30;;;;;;;8.62;100.00;98892.36;1724070;82;25186;-79
2020/12/24 00:10:08;;;;;;;29.57;20.83;;;;;;;8.64;100.00;98885.20;1725560;82;26284;-79
2020/12/24 00:12:35;;;;;;;29.03;19.57;;;;;;;8.57;100.00;98894.04;1732309;82;26357;-78
2020/12/24 00:15:04;;;;;;;28.17;18.87;;;;;;;8.57;100.00;98891.91;1732367;82;26371;-78
2020/12/24 00:17:31;;;;;;;27.67;20.17;;;;;;;8.62;100.00;98898.92;1732500;82;26260;-79
2020/12/24 00:19:57;;;;;;;30.63;21.50;;;;;;;8.60;100.00;98895.11;1732595;82;25169;-79
2020/12/24 00:22:24;;;;;;;27.23;20.13;;;;;;;8.60;100.00;98898.22;1706040;82;26548;-79
2020/12/24 00:24:51;;;;;;;29.27;20.27;;;;;;;8.61;100.00;98899.86;1732405;82;25327;-79
2020/12/24 00:27:17;;;;;;;28.47;19.93;;;;;;;8.63;100.00;98907.12;1732323;82;26344;-79
2020/12/24 00:29:44;;;;;;;26.97;19.40;;;;;;;8.68;100.00;98903.64;1706124;82;26197;-79
2020/12/24 00:32:11;;;;;;;27.30;19.17;;;;;;;8.72;100.00;98910.31;1732325;82;25742;-79
2020/12/24 00:34:38;;;;;;;26.77;18.30;;;;;;;8.73;100.00;98904.09;1732289;82;26257;-79
2020/12/24 00:37:04;;;;;;;22.50;16.87;;;;;;;8.79;100.00;98898.36;1732291;82;25204;-79
2020/12/24 00:39:31;;;;;;;24.87;16.97;;;;;;;8.83;100.00;98903.73;1732338;82;25334;-79
2020/12/24 00:41:57;;;;;;;23.93;16.90;;;;;;;8.87;100.00;98895.95;1732307;82;25366;-79
2020/12/24 00:44:24;;;;;;;24.23;16.90;;;;;;;8.89;100.00;98881.40;1732411;82;25236;-79
2020/12/24 00:46:52;;;;;;;22.40;17.13;;;;;;;8.90;100.00;98889.14;1732320;82;25599;-79
2020/12/24 00:49:19;;;;;;;24.07;16.83;;;;;;;8.93;100.00;98889.84;1732337;82;25101;-79
2020/12/24 00:51:46;;;;;;;21.50;16.60;;;;;;;8.98;100.00;98894.22;1732196;81;26767;-79
2020/12/24 00:54:13;;;;;;;20.23;15.30;;;;;;;8.97;100.00;98892.09;1732394;82;26351;-80
2020/12/24 00:56:40;;;;;;;21.20;14.87;;;;;;;8.97;100.00;98886.84;1732338;82;25775;-79
2020/12/24 00:59:08;;;;;;;17.97;13.40;;;;;;;8.98;100.00;98880.66;1731946;82;25232;-80
2020/12/24 01:01:35;;;;;;;19.53;13.13;;;;;;;9.02;100.00;98885.16;1732425;82;25145;-80
2020/12/24 01:04:01;;;;;;;18.47;13.20;;;;;;;9.06;100.00;98872.13;1732172;82;25810;-80
2020/12/24 01:06:28;;;;;;;15.53;11.77;;;;;;;9.07;100.00;98869.38;1732328;82;26312;-80
2020/12/24 01:08:55;;;;;;;16.37;12.30;;;;;;;9.08;100.00;98874.98;1732423;82;26260;-79
2020/12/24 01:11:29;;;;;;;17.53;11.83;;;;;;;9.12;100.00;98889.14;1713231;82;26514;-80
2020/12/24 01:14:03;;;;;;;15.50;11.83;;;;;;;9.23;100.00;98892.55;1852762;76;27527;-79
2020/12/24 01:16:30;;;;;;;17.20;11.67;;;;;;;9.23;100.00;98890.39;1824712;78;26325;-79
2020/12/24 01:18:58;;;;;;;13.47;10.67;;;;;;;9.23;100.00;98880.75;1824758;78;25243;-78
2020/12/24 01:21:27;;;;;;;13.30;10.63;;;;;;;9.23;100.00;98884.69;1824502;78;26585;-78
2020/12/24 01:23:54;;;;;;;14.03;10.70;;;;;;;9.25;100.00;98886.69;1824824;78;25618;-79
2020/12/24 01:26:21;;;;;;;14.60;10.60;;;;;;;9.27;100.00;98874.27;1824755;78;25282;-78
2020/12/24 01:28:47;;;;;;;12.30;9.60;;;;;;;9.32;100.00;98879.14;1824879;78;26648;-78
2020/12/24 01:31:14;;;;;;;12.53;9.27;;;;;;;9.33;100.00;98880.78;1824785;78;25346;-78
2020/12/24 01:33:41;;;;;;;14.70;11.33;;;;;;;9.33;100.00;98878.64;1824645;78;26364;-79
2020/12/24 01:36:07;;;;;;;17.20;12.70;;;;;;;9.34;100.00;98887.70;1824595;78;26317;-79
2020/12/24 01:38:34;;;;;;;17.57;12.67;;;;;;;9.35;100.00;98891.16;1824742;78;26356;-79
2020/12/24 01:41:02;;;;;;;20.97;13.13;;;;;;;9.37;100.00;98884.00;1824740;78;26668;-79
2020/12/24 01:43:29;;;;;;;24.50;15.33;;;;;;;9.39;100.00;98880.77;1824611;78;26293;-79
2020/12/24 01:45:57;;;;;;;21.37;13.17;;;;;;;9.42;100.00;98880.51;1824827;78;25650;-79
2020/12/24 01:48:24;;;;;;;19.00;11.57;;;;;;;9.43;100.00;98888.22;1824791;78;26293;-79
2020/12/24 01:50:51;;;;;;;16.63;10.43;;;;;;;9.47;100.00;98890.14;1809359;78;25616;-77
2020/12/24 01:53:21;;;;;;;15.97;10.53;;;;;;;9.48;100.00;98887.84;1761776;80;26296;-79
2020/12/24 01:55:48;;;;;;;16.17;10.10;;;;;;;9.49;100.00;98876.39;1792280;80;25744;-79
2020/12/24 01:58:15;;;;;;;24.07;12.37;;;;;;;9.51;100.00;98886.77;1792283;80;26307;-80
2020/12/24 02:00:46;;;;;;;18.87;10.67;;;;;;;9.53;100.00;98881.72;1792232;80;26339;-79
2020/12/24 02:03:15;;;;;;;17.77;9.30;;;;;;;9.55;100.00;98878.50;1792301;79;25292;-79
2020/12/24 02:05:42;;;;;;;13.33;8.80;;;;;;;9.58;100.00;98876.91;1791917;79;26750;-79
2020/12/24 02:08:10;;;;;;;16.50;8.70;;;;;;;9.60;100.00;98877.62;1792236;80;26873;-79
2020/12/24 02:10:38;;;;;;;14.10;8.53;;;;;;;9.61;100.00;98878.45;1792147;80;26314;-79
2020/12/24 02:13:04;;;;;;;13.03;7.20;;;;;;;9.61;100.00;98871.39;1792046;80;25332;-80
2020/12/24 02:15:31;;;;;;;12.97;7.40;;;;;;;9.61;100.00;98874.02;1792237;80;26636;-79
2020/12/24 02:17:58;;;;;;;10.93;7.20;;;;;;;9.64;100.00;98864.57;1792256;80;25265;-79
2020/12/24 02:20:24;;;;;;;11.40;6.87;;;;;;;9.65;100.00;98870.19;1792374;80;25280;-79
2020/12/24 02:22:51;;;;;;;15.00;7.03;;;;;;;9.66;100.00;98872.32;1792051;80;25482;-79
2020/12/24 02:25:18;;;;;;;11.73;6.80;;;;;;;9.67;100.00;98872.69;1791704;80;26350;-78
2020/12/24 02:27:45;;;;;;;10.43;6.37;;;;;;;9.66;100.00;98883.64;1791840;80;26312;-79
2020/12/24 02:30:11;;;;;;;10.80;6.33;;;;;;;9.71;100.00;98881.13;1791822;79;26343;-79
2020/12/24 02:32:38;;;;;;;10.97;6.87;;;;;;;9.74;100.00;98879.55;1791601;79;26299;-78
2020/12/24 02:35:05;;;;;;;12.03;7.07;;;;;;;9.75;100.00;98875.95;1791610;80;25228;-79
2020/12/24 02:37:31;;;;;;;11.80;5.83;;;;;;;9.78;100.00;98870.43;1791608;79;25595;-79
2020/12/24 02:39:58;;;;;;;8.80;5.33;;;;;;;9.81;100.00;98868.86;1791576;80;26240;-79
2020/12/24 02:42:25;;;;;;;8.77;5.07;;;;;;;9.83;100.00;98860.36;1791665;80;26256;-79
2020/12/24 02:44:52;;;;;;;6.03;4.40;;;;;;;9.86;100.00;98854.02;1791694;80;26221;-78
2020/12/24 02:47:18;;;;;;;6.37;4.67;;;;;;;9.84;100.00;98847.59;1791628;80;25308;-79
2020/12/24 02:49:45;;;;;;;4.53;3.87;;;;;;;9.83;100.00;98843.28;1791725;78;25268;-79
2020/12/24 02:52:12;;;;;;;5.60;3.83;;;;;;;9.83;100.00;98853.80;1791646;80;25616;-79
2020/12/24 02:54:38;;;;;;;5.30;3.57;;;;;;;9.82;100.00;98857.37;1791746;80;26313;-78
2020/12/24 02:57:05;;;;;;;5.37;3.90;;;;;;;9.81;100.00;98846.53;1791689;80;25637;-78
2020/12/24 02:59:32;;;;;;;4.83;3.53;;;;;;;9.80;100.00;98851.42;1791805;79;26251;-79
2020/12/24 03:01:59;;;;;;;5.97;3.70;;;;;;;9.78;100.00;98848.11;1791669;80;25303;-79
2020/12/24 03:04:25;;;;;;;6.20;3.50;;;;;;;9.76;100.00;98851.36;1791629;79;25743;-80
2020/12/24 03:06:52;;;;;;;5.87;3.57;;;;;;;9.74;100.00;98840.16;1791714;80;26311;-80
2020/12/24 03:09:19;;;;;;;6.80;3.30;;;;;;;9.74;100.00;98845.41;1791816;80;26307;-80
2020/12/24 03:11:49;;;;;;;5.43;3.20;;;;;;;9.72;99.64;98853.42;1791671;80;25356;-79
2020/12/24 03:14:18;;;;;;;4.17;2.90;;;;;;;9.71;99.70;98853.55;1766056;80;25747;-80
2020/12/24 03:16:46;;;;;;;5.37;3.00;;;;;;;9.70;99.75;98853.19;1759853;80;26763;-79
2020/12/24 03:19:13;;;;;;;5.23;2.83;;;;;;;9.72;99.36;98844.23;1759848;80;26337;-79
2020/12/24 03:21:40;;;;;;;5.23;2.87;;;;;;;9.71;99.55;98838.62;1759790;80;26309;-78
2020/12/24 03:24:07;;;;;;;3.30;2.57;;;;;;;9.74;99.59;98841.48;1759689;81;25340;-79
2020/12/24 03:26:33;;;;;;;3.37;2.30;;;;;;;9.77;99.54;98847.75;1759931;80;26296;-79
2020/12/24 03:29:00;;;;;;;3.97;2.23;;;;;;;9.82;99.48;98852.12;1759843;81;25266;-79
2020/12/24 03:31:27;;;;;;;4.60;2.60;;;;;;;9.84;99.42;98852.84;1759844;81;25262;-80
2020/12/24 03:33:54;;;;;;;4.40;2.67;;;;;;;9.90;99.21;98860.16;1759931;81;25376;-80
2020/12/24 03:36:21;;;;;;;5.70;2.87;;;;;;;9.95;99.32;98868.47;1759690;80;25602;-78
2020/12/24 03:38:48;;;;;;;5.13;2.70;;;;;;;10.01;98.89;98871.89;1759863;80;25789;-79
2020/12/24 03:41:15;;;;;;;4.20;2.83;;;;;;;10.06;98.58;98865.42;1759915;81;25664;-79
2020/12/24 03:43:41;;;;;;;6.57;3.67;;;;;;;10.10;98.30;98862.36;1759731;81;26715;-79
2020/12/24 03:46:08;;;;;;;5.97;3.40;;;;;;;10.16;97.68;98866.27;1759673;80;26297;-79
2020/12/24 03:48:35;;;;;;;5.77;3.90;;;;;;;10.18;97.58;98864.33;1759705;80;25278;-79
2020/12/24 03:51:01;;;;;;;5.03;3.77;;;;;;;10.21;97.48;98868.01;1759730;80;26207;-79
2020/12/24 03:53:28;;;;;;;4.73;3.57;;;;;;;10.23;97.31;98855.55;1759696;80;25318;-78
2020/12/24 03:55:55;;;;;;;4.33;3.20;;;;;;;10.25;97.28;98850.98;1759760;80;25670;-79
2020/12/24 03:58:22;;;;;;;4.17;3.33;;;;;;;10.28;96.68;98850.72;1759888;81;25330;-79
2020/12/24 04:00:48;;;;;;;7.03;3.67;;;;;;;10.31;96.22;98846.51;1759746;81;25712;-78
2020/12/24 04:03:15;;;;;;;5.50;3.50;;;;;;;10.29;95.91;98843.19;1759632;80;26238;-80
2020/12/24 04:05:42;;;;;;;6.17;4.10;;;;;;;10.25;95.76;98843.09;1759743;81;25700;-79
2020/12/24 04:08:08;;;;;;;7.67;4.60;;;;;;;10.22;96.17;98839.42;1759899;81;25071;-79
2020/12/24 04:10:35;;;;;;;8.27;3.57;;;;;;;10.22;95.67;98838.11;1759858;81;25218;-79
2020/12/24 04:13:02;;;;;;;5.70;3.20;;;;;;;10.18;95.62;98838.88;1759704;79;25452;-79
2020/12/24 04:15:28;;;;;;;6.03;3.17;;;;;;;10.17;95.46;98834.60;1759828;80;25080;-79
2020/12/24 04:17:55;;;;;;;4.70;2.97;;;;;;;10.15;95.20;98829.13;1759907;80;25254;-80
2020/12/24 04:20:22;;;;;;;5.27;3.00;;;;;;;10.14;95.02;98832.73;1759821;80;26293;-79
2020/12/24 04:22:49;;;;;;;4.70;2.67;;;;;;;10.11;95.28;98826.43;1759775;80;25314;-79
2020/12/24 04:25:15;;;;;;;4.87;2.43;;;;;;;10.11;95.34;98836.94;1759786;81;25218;-79
2020/12/24 04:27:42;;;;;;;2.70;2.13;;;;;;;10.09;95.41;98844.95;1759759;80;25065;-80
2020/12/24 04:30:08;;;;;;;2.77;2.10;;;;;;;10.11;95.20;98838.25;1759806;81;25677;-79
2020/12/24 04:32:35;;;;;;;3.50;2.30;;;;;;;10.11;95.36;98848.27;1732015;81;25385;-79
2020/12/24 04:35:02;;;;;;;2.77;2.27;;;;;;;10.10;95.33;98853.66;1759663;81;25206;-79
2020/12/24 04:37:28;;;;;;;2.80;2.00;;;;;;;10.09;94.89;98854.61;1759697;80;25302;-79
2020/12/24 04:39:55;;;;;;;3.50;2.37;;;;;;;10.08;94.98;98851.16;1759913;81;25310;-80
2020/12/24 04:42:23;;;;;;;3.07;2.00;;;;;;;10.07;94.98;98851.30;1759783;80;25380;-79
2020/12/24 04:44:50;;;;;;;4.83;2.30;;;;;;;10.07;94.94;98851.30;1759804;81;26293;-79
2020/12/24 04:47:18;;;;;;;2.77;2.10;;;;;;;10.09;94.86;98851.98;1759749;80;26332;-79
2020/12/24 04:49:45;;;;;;;2.53;2.27;;;;;;;10.09;94.77;98857.24;1759646;80;25194;-79
2020/12/24 04:52:14;;;;;;;3.40;1.70;;;;;;;10.07;94.83;98848.20;1759767;80;25206;-79
2020/12/24 04:54:40;;;;;;;2.20;1.90;;;;;;;10.07;94.65;98851.30;1759762;80;25309;-79
2020/12/24 04:57:09;;;;;;;2.07;1.60;;;;;;;10.05;94.74;98846.67;1759711;81;25728;-79
2020/12/24 04:59:37;;;;;;;5.13;2.00;;;;;;;10.04;94.13;98841.91;1759961;81;25194;-79
2020/12/24 05:02:04;;;;;;;2.13;1.67;;;;;;;10.00;93.86;98837.41;1759864;80;25219;-79
2020/12/24 05:04:33;;;;;;;2.90;1.70;;;;;;;9.99;93.50;98835.73;1759841;80;25215;-80
2020/12/24 05:07:20;;;;;;;3.20;1.87;;;;;;;9.97;93.70;98842.92;1640777;85;26337;-80
2020/12/24 05:09:50;;;;;;;3.03;2.00;;;;;;;9.97;93.34;98849.49;1640511;87;25161;-81
2020/12/24 05:12:30;;;;;;;4.33;2.20;;;;;;;9.98;92.93;98844.56;1640561;86;25734;-80
2020/12/24 05:14:57;;;;;;;4.10;2.10;;;;;;;9.95;93.21;98840.89;1640611;87;25401;-80
2020/12/24 05:17:24;;;;;;;2.33;1.97;;;;;;;9.93;93.18;98843.32;1640648;86;26332;-79
2020/12/24 05:20:04;;;;;;;3.00;1.90;;;;;;;9.94;93.03;98841.87;1640657;87;25205;-79
2020/12/24 05:22:31;;;;;;;3.47;2.13;;;;;;;9.90;93.16;98829.95;1640147;87;25121;-80
2020/12/24 05:25:10;;;;;;;2.53;1.97;;;;;;;9.90;92.96;98831.77;1640574;85;26711;-80
2020/12/24 05:27:35;;;;;;;2.17;1.70;;;;;;;9.89;92.89;98836.20;1640270;87;26206;-80
2020/12/24 05:30:02;;;;;;;3.33;2.03;;;;;;;9.90;92.71;98830.45;1640728;85;25370;-80
2020/12/24 05:32:30;;;;;;;4.10;2.00;;;;;;;9.90;92.50;98825.20;1675773;85;26805;-78
2020/12/24 05:35:12;;;;;;;2.97;2.00;;;;;;;9.90;92.43;98830.45;1672652;85;25155;-81
2020/12/24 05:37:40;;;;;;;2.67;2.00;;;;;;;9.89;92.36;98827.46;1653706;85;25110;-79
2020/12/24 05:40:21;;;;;;;2.30;1.97;;;;;;;9.86;92.47;98829.89;1680468;85;26441;-80
2020/12/24 05:42:56;;;;;;;2.83;2.00;;;;;;;9.86;92.40;98837.77;1679230;85;25197;-78
2020/12/24 05:45:30;;;;;;;3.40;2.13;;;;;;;9.82;92.59;98831.11;1685014;84;25108;-79
2020/12/24 05:48:15;;;;;;;2.93;1.73;;;;;;;9.80;92.65;98838.30;1672637;85;25583;-79
2020/12/24 05:50:43;;;;;;;3.43;2.10;;;;;;;9.79;92.56;98835.34;1664780;84;26276;-78
2020/12/24 05:53:13;;;;;;;3.07;2.20;;;;;;;9.77;92.55;98835.47;1679848;84;25266;-79
2020/12/24 05:55:42;;;;;;;3.30;2.27;;;;;;;9.75;92.54;98829.53;1679919;84;26140;-79
2020/12/24 05:58:11;;;;;;;3.40;1.80;;;;;;;9.77;92.47;98837.25;1680041;84;26275;-79
2020/12/24 06:00:41;;;;;;;5.13;2.10;;;;;;;9.74;92.59;98837.05;1679956;84;25804;-79
2020/12/24 06:03:18;;;;;;;3.50;1.87;;;;;;;9.79;92.27;98836.16;1680048;84;26375;-79
2020/12/24 06:05:54;;;;;;;3.10;2.07;;;;;;;9.75;92.40;98828.67;1690129;83;26697;-79
2020/12/24 06:08:29;;;;;;;3.47;2.60;;;;;;;9.71;92.65;98833.37;1718541;83;25309;-79
2020/12/24 06:11:06;;;;;;;7.47;4.10;;;;;;;9.72;92.61;98832.88;1719958;83;25285;-80
2020/12/24 06:13:39;;;;;;;4.27;3.33;;;;;;;9.72;92.61;98838.12;1718518;83;26672;-80
2020/12/24 06:16:11;;;;;;;3.80;2.33;;;;;;;9.74;92.46;98830.97;1718520;83;25159;-80
2020/12/24 06:18:41;;;;;;;2.93;2.27;;;;;;;9.74;92.50;98817.84;1718497;83;25746;-79
2020/12/24 06:21:19;;;;;;;4.90;2.43;;;;;;;9.75;92.34;98818.17;1718455;83;25158;-78
2020/12/24 06:24:00;;;;;;;3.23;2.03;;;;;;;9.76;92.28;98810.16;1718475;83;25617;-79
2020/12/24 06:26:31;;;;;;;3.63;2.17;;;;;;;9.76;92.17;98802.78;1718474;83;26206;-80
2020/12/24 06:29:02;;;;;;;3.43;2.30;;;;;;;9.77;92.40;98807.05;1718667;83;25147;-80
2020/12/24 06:31:29;;;;;;;3.93;2.73;;;;;;;9.78;92.27;98803.47;1718493;83;26427;-80
2020/12/24 06:33:57;;;;;;;4.07;2.83;;;;;;;9.81;91.83;98811.91;1692133;83;26230;-80
2020/12/24 06:36:36;;;;;;;6.43;3.50;;;;;;;9.82;91.93;98812.72;1718591;83;26357;-80
2020/12/24 06:39:04;;;;;;;4.37;2.50;;;;;;;9.86;91.46;98808.06;1717460;83;25076;-80
2020/12/24 06:41:37;;;;;;;14.73;9.47;;;;;;;9.88;91.36;98806.13;1718526;83;26321;-80
2020/12/24 06:44:05;;;;;;;12.53;7.50;;;;;;;9.88;91.20;98804.31;1718571;82;25254;-79
2020/12/24 06:46:57;;;;;;;25.43;15.73;;;;;;;9.88;91.11;98788.55;1718514;83;26342;-79
2020/12/24 06:49:52;;;;;;;24.40;17.23;;;;;;;9.88;91.06;98785.11;1674523;85;25742;-80
2020/12/24 06:52:29;;;;;;;37.17;25.57;;;;;;;9.88;91.00;98781.17;1695425;84;25098;-80
2020/12/24 06:55:15;;;;;;;51.63;35.43;;;;;;;9.90;90.56;98776.61;1695385;83;26648;-80
2020/12/24 06:57:43;;;;;;;127.27;61.30;;;;;;;9.88;90.51;98774.60;1670582;85;25233;-80
2020/12/24 07:00:24;;;;;;;109.40;51.43;;;;;;;9.88;90.34;98769.34;1695710;83;25308;-80
2020/12/24 07:02:51;;;;;;;34.10;26.77;;;;;;;9.86;90.47;98776.55;1670634;85;26365;-80
2020/12/24 07:05:42;;;;;;;18.43;14.07;;;;;;;9.84;90.61;98780.61;1695521;84;26232;-81
2020/12/24 07:08:33;;;;;;;68.17;38.80;;;;;;;9.87;90.34;98778.19;1670391;85;26270;-80
2020/12/24 07:11:02;;;;;;;54.87;25.03;;;;;;;9.86;90.43;98782.62;1695530;83;25134;-81
2020/12/24 07:13:36;;;;;;;24.67;10.80;;;;;;;9.86;90.47;98785.24;1670462;85;26788;-80
2020/12/24 07:16:03;;;;;;;6.77;3.83;;;;;;;9.88;90.13;98797.75;1704468;83;25596;-81
2020/12/24 07:18:31;;;;;;;6.27;4.07;;;;;;;9.88;90.33;98791.67;1729997;82;26194;-80
2020/12/24 07:21:03;;;;;;;15.30;6.43;;;;;;;9.87;90.33;98793.48;1730016;82;25657;-80
2020/12/24 07:23:33;;;;;;;13.57;8.67;;;;;;;9.90;89.94;98797.13;1729893;82;25183;-80
2020/12/24 07:26:02;;;;;;;7.57;5.60;;;;;;;9.91;89.75;98796.17;1729846;82;25214;-80
2020/12/24 07:28:30;;;;;;;21.10;15.07;;;;;;;9.89;90.12;98794.17;1729880;82;25155;-80
2020/12/24 07:31:02;;;;;;;13.97;11.10;;;;;;;9.94;89.89;98803.79;1703816;83;25150;-80
2020/12/24 07:33:29;;;;;;;98.80;43.07;;;;;;;9.99;89.28;98797.64;1729846;82;25170;-80
2020/12/24 07:35:55;;;;;;;112.07;45.33;;;;;;;9.98;89.47;98799.09;1729987;82;25157;-81
2020/12/24 07:38:25;;;;;;;123.20;49.83;;;;;;;10.01;88.90;98789.13;1729845;82;26158;-81
2020/12/24 07:40:52;;;;;;;415.80;202.53;;;;;;;10.03;88.83;98779.31;1729877;82;25141;-79
2020/12/24 07:43:19;;;;;;;177.93;87.17;;;;;;;10.05;88.80;98770.48;1729833;82;26822;-80
2020/12/24 07:45:45;;;;;;;233.13;123.60;;;;;;;10.07;88.57;98764.59;1729837;82;25232;-80
2020/12/24 07:48:16;;;;;;;140.53;75.77;;;;;;;10.09;88.39;98775.33;1729943;82;25225;-80
2020/12/24 07:50:45;;;;;;;24.53;14.20;;;;;;;10.12;88.07;98774.20;1710200;81;26118;-80
2020/12/24 07:53:22;;;;;;;30.60;13.87;;;;;;;10.12;87.96;98784.72;1718891;82;26202;-79
2020/12/24 07:55:49;;;;;;;4.40;2.50;;;;;;;10.12;88.13;98784.26;1735117;81;25221;-81
2020/12/24 07:58:17;;;;;;;23.67;8.53;;;;;;;10.13;87.97;98775.88;1734741;81;25137;-80
2020/12/24 08:00:49;;;;;;;35.50;12.33;;;;;;;10.13;88.13;98772.77;1735111;81;25242;-80
2020/12/24 08:03:16;;;;;;;13.87;5.30;;;;;;;10.14;87.86;98751.28;1735125;81;25183;-80
2020/12/24 08:05:47;;;;;;;12.43;4.70;;;;;;;10.16;87.51;98758.04;1734743;82;25174;-79
2020/12/24 08:08:22;;;;;;;22.87;9.17;;;;;;;10.15;87.63;98768.69;1735153;81;25265;-80
2020/12/24 08:10:49;;;;;;;26.53;11.07;;;;;;;10.16;87.35;98771.67;1734785;81;25086;-80
2020/12/24 08:13:16;;;;;;;5.87;3.40;;;;;;;10.14;87.68;98789.37;1734998;81;25581;-80
2020/12/24 08:15:46;;;;;;;5.80;3.37;;;;;;;10.18;87.49;98796.01;1734863;81;25187;-80
2020/12/24 08:18:14;;;;;;;9.77;5.07;;;;;;;10.17;87.43;98798.28;1735206;81;25620;-80
2020/12/24 08:21:03;;;;;;;12.37;5.73;;;;;;;10.18;87.52;98788.13;1734969;81;25083;-80
2020/12/24 08:23:46;;;;;;;8.47;3.77;;;;;;;10.18;87.60;98785.00;1735046;81;25230;-80
2020/12/24 08:26:14;;;;;;;8.30;4.30;;;;;;;10.19;87.61;98772.22;1734933;81;25197;-80
2020/12/24 08:28:46;;;;;;;9.83;5.70;;;;;;;10.20;87.40;98783.55;1735009;81;25083;-80
2020/12/24 08:31:13;;;;;;;10.17;6.07;;;;;;;10.21;87.31;98787.86;1705346;82;25833;-79
2020/12/24 08:33:40;;;;;;;13.90;9.90;;;;;;;10.24;86.91;98782.79;1734849;81;25224;-80
2020/12/24 08:36:23;;;;;;;7.37;5.53;;;;;;;10.25;86.75;98783.97;1722835;82;25136;-80
2020/12/24 08:38:52;;;;;;;14.40;6.40;;;;;;;10.23;86.78;98790.34;1734980;81;25506;-80
2020/12/24 08:41:25;;;;;;;3.67;2.60;;;;;;;10.25;86.55;98796.29;1735288;81;25072;-80
2020/12/24 08:43:55;;;;;;;5.90;3.67;;;;;;;10.25;86.25;98804.99;1734953;81;25079;-80
2020/12/24 08:46:22;;;;;;;4.30;3.30;;;;;;;10.20;86.62;98804.08;1735137;81;25668;-80
2020/12/24 08:48:50;;;;;;;5.53;3.90;;;;;;;10.24;86.28;98799.88;1734931;82;25083;-80
2020/12/24 08:51:18;;;;;;;5.77;3.63;;;;;;;10.22;86.35;98809.20;1741173;81;25594;-80
2020/12/24 08:53:45;;;;;;;7.93;5.50;;;;;;;10.24;86.03;98808.61;1752804;81;25151;-80
2020/12/24 08:56:17;;;;;;;7.73;5.40;;;;;;;10.24;86.10;98800.72;1753292;81;25229;-80
2020/12/24 08:58:53;;;;;;;6.97;4.90;;;;;;;10.25;85.68;98798.42;1752747;81;25751;-80
2020/12/24 09:01:21;;;;;;;6.03;4.13;;;;;;;10.24;85.96;98803.35;1752912;81;25237;-81
2020/12/24 09:03:48;;;;;;;8.27;3.70;;;;;;;10.27;85.56;98814.05;1752790;81;25191;-80
2020/12/24 09:06:17;;;;;;;5.00;3.90;;;;;;;10.27;85.43;98788.59;1752768;81;25574;-81
2020/12/24 09:08:49;;;;;;;4.27;3.70;;;;;;;10.25;85.54;98798.92;1752828;81;25612;-79
2020/12/24 09:11:27;;;;;;;8.60;5.90;;;;;;;10.25;85.59;98803.68;1753135;81;25236;-80
2020/12/24 09:14:05;;;;;;;5.00;3.70;;;;;;;10.27;85.29;98811.43;1753076;81;25321;-80
2020/12/24 09:19:10;;;;;;;5.17;3.73;;;;;;;10.33;84.86;98803.04;1818521;78;26780;-79
2020/12/24 09:21:37;;;;;;;5.93;3.20;;;;;;;10.33;83.70;98792.03;1789801;79;25308;-78
2020/12/24 09:24:08;;;;;;;5.60;3.47;;;;;;;10.34;83.64;98788.91;1790032;79;25677;-80
2020/12/24 09:26:50;;;;;;;4.87;2.67;;;;;;;10.38;83.02;98798.20;1789902;79;25293;-80
2020/12/24 09:29:19;;;;;;;9.10;6.20;;;;;;;10.41;82.92;98793.98;1730598;81;25304;-81
2020/12/24 09:31:58;;;;;;;6.17;4.13;;;;;;;10.46;82.24;98778.62;1734051;81;25280;-80
2020/12/24 09:34:26;;;;;;;3.63;2.80;;;;;;;10.46;82.24;98785.69;1761364;81;25639;-81
2020/12/24 09:36:53;;;;;;;5.83;3.67;;;;;;;10.52;81.69;98783.80;1788948;80;25324;-80
2020/12/24 09:39:19;;;;;;;3.13;2.23;;;;;;;10.54;81.13;98789.73;1757702;80;25703;-80
2020/12/24 09:41:48;;;;;;;3.67;2.60;;;;;;;10.59;80.69;98790.14;1761319;81;25699;-80
2020/12/24 09:44:16;;;;;;;5.00;3.70;;;;;;;10.51;81.54;98784.78;1789047;80;25285;-79
2020/12/24 09:46:46;;;;;;;3.80;2.80;;;;;;;10.54;80.66;98793.68;1789978;79;25720;-79
2020/12/24 09:49:13;;;;;;;4.90;3.60;;;;;;;10.45;81.22;98787.95;1788994;80;25759;-80
2020/12/24 09:51:39;;;;;;;3.97;3.00;;;;;;;10.46;80.20;98779.94;1754354;80;25293;-80
2020/12/24 09:54:07;;;;;;;4.13;2.60;;;;;;;10.43;79.74;98764.92;1761486;81;25331;-79
2020/12/24 09:56:35;;;;;;;3.00;2.17;;;;;;;10.41;78.89;98758.49;1761361;81;26310;-80
2020/12/24 09:59:03;;;;;;;3.27;2.10;;;;;;;10.37;78.95;98750.06;1761433;81;25349;-80
2020/12/24 10:01:30;;;;;;;4.17;2.00;;;;;;;10.32;79.18;98748.34;1733113;81;25310;-80
2020/12/24 10:04:00;;;;;;;3.83;2.53;;;;;;;10.30;79.23;98763.85;1734198;81;25295;-80
2020/12/24 10:06:27;;;;;;;6.17;3.23;;;;;;;10.30;78.04;98760.73;1734178;81;25287;-80
2020/12/24 10:08:54;;;;;;;5.33;2.40;;;;;;;10.31;78.28;98765.03;1686505;81;25136;-80
2020/12/24 10:11:21;;;;;;;2.93;1.93;;;;;;;10.31;77.78;98757.64;1761298;81;25212;-80
2020/12/24 10:13:48;;;;;;;6.03;2.70;;;;;;;10.32;76.85;98754.91;1759151;79;25202;-80
2020/12/24 10:16:15;;;;;;;4.30;2.90;;;;;;;10.27;77.31;98750.48;1788956;80;25269;-79
2020/12/24 10:18:45;;;;;;;13.60;9.30;;;;;;;10.27;77.16;98762.81;1749062;81;25636;-79
2020/12/24 10:21:12;;;;;;;7.43;5.20;;;;;;;10.29;76.84;98763.03;1733042;81;25352;-80
2020/12/24 10:23:39;;;;;;;5.23;3.40;;;;;;;10.29;77.36;98764.80;1744150;81;25299;-80
2020/12/24 10:26:05;;;;;;;6.47;4.10;;;;;;;10.31;77.88;98762.41;1744133;81;25560;-79
2020/12/24 10:28:32;;;;;;;7.43;4.40;;;;;;;10.36;77.50;98754.14;1744072;82;25141;-80
2020/12/24 10:30:59;;;;;;;6.80;4.00;;;;;;;10.34;77.35;98744.22;1743722;82;25084;-80
2020/12/24 10:33:26;;;;;;;8.00;4.27;;;;;;;10.45;76.08;98741.95;1743556;82;25284;-79
2020/12/24 10:35:52;;;;;;;6.70;4.17;;;;;;;10.40;76.54;98743.67;1743708;82;25308;-80
2020/12/24 10:38:20;;;;;;;8.33;3.90;;;;;;;10.44;76.50;98734.56;1743418;81;25090;-79
2020/12/24 10:40:46;;;;;;;7.87;5.23;;;;;;;10.43;76.65;98742.58;1743622;82;25265;-79
2020/12/24 10:43:14;;;;;;;8.67;6.33;;;;;;;10.44;76.43;98740.28;1720450;82;25459;-79
2020/12/24 10:45:41;;;;;;;9.57;7.07;;;;;;;10.40;76.45;98739.73;1743691;82;25704;-79
2020/12/24 10:48:13;;;;;;;12.23;7.37;;;;;;;10.38;76.51;98722.78;1743652;82;25319;-79
2020/12/24 10:50:39;;;;;;;10.23;6.60;;;;;;;10.42;76.25;98727.27;1743753;81;25672;-79
2020/12/24 10:53:06;;;;;;;10.30;6.80;;;;;;;10.45;76.29;98734.88;1743510;82;25244;-79
2020/12/24 10:55:35;;;;;;;8.77;6.13;;;;;;;10.49;76.06;98736.74;1743659;82;25327;-79
2020/12/24 10:58:02;;;;;;;9.37;6.03;;;;;;;10.50;75.38;98727.90;1720877;82;25700;-79
2020/12/24 11:00:29;;;;;;;7.63;5.67;;;;;;;10.47;75.48;98736.06;1721014;82;25213;-79
2020/12/24 11:02:56;;;;;;;9.90;6.57;;;;;;;10.38;75.61;98743.00;1743583;81;25292;-79
2020/12/24 11:05:25;;;;;;;11.47;6.70;;;;;;;10.34;75.96;98745.08;1743466;81;25319;-78
2020/12/24 11:07:52;;;;;;;11.87;7.53;;;;;;;10.35;76.14;98753.29;1743531;81;25788;-79
2020/12/24 11:10:19;;;;;;;11.83;6.97;;;;;;;10.38;76.03;98750.39;1743486;81;26153;-78
2020/12/24 11:12:46;;;;;;;6.80;4.27;;;;;;;10.39;75.51;98744.17;1743634;82;25280;-79
2020/12/24 11:15:13;;;;;;;6.50;4.60;;;;;;;10.37;75.16;98725.55;1743513;82;25375;-79
2020/12/24 11:17:40;;;;;;;8.27;4.40;;;;;;;10.34;75.23;98732.39;1741666;82;25885;-78
2020/12/24 11:20:06;;;;;;;8.07;5.00;;;;;;;10.32;75.21;98721.20;1736801;82;25217;-79
2020/12/24 11:22:33;;;;;;;7.73;4.10;;;;;;;10.29;75.82;98717.50;1721830;82;25324;-79
2020/12/24 11:25:00;;;;;;;11.27;5.97;;;;;;;10.26;76.39;98730.95;1736902;82;25739;-79
2020/12/24 11:27:26;;;;;;;14.43;8.93;;;;;;;10.25;76.73;98720.89;1737047;82;25320;-79
2020/12/24 11:29:53;;;;;;;8.00;5.50;;;;;;;10.25;76.68;98718.27;1736843;82;25319;-79
2020/12/24 11:32:20;;;;;;;11.47;7.37;;;;;;;10.20;76.66;98723.11;1737138;82;25077;-80
2020/12/24 11:34:46;;;;;;;11.60;7.20;;;;;;;10.17;76.27;98723.39;1736986;82;25295;-79
2020/12/24 11:37:13;;;;;;;10.17;6.30;;;;;;;10.10;75.46;98713.91;1736970;82;25283;-79
2020/12/24 11:39:40;;;;;;;11.27;6.27;;;;;;;10.08;74.76;98722.92;1736988;82;25395;-79